createdAt,value
2019-01-09T00:00:54.082Z,87.24
2019-01-09T00:03:22.476Z,87.29
2019-01-09T00:05:50.829Z,87.33
2019-01-09T00:08:19.394Z,87.40
2019-01-09T00:10:49.676Z,87.71
2019-01-09T00:13:18.066Z,87.94
2019-01-09T00:15:46.337Z,86.00
2019-01-09T00:18:16.217Z,85.95
2019-01-09T00:20:44.561Z,86.93
2019-01-09T00:23:12.828Z,87.34
2019-01-09T00:25:41.205Z,88.41
2019-01-09T00:28:09.567Z,89.01
2019-01-09T00:30:38.358Z,89.25
2019-01-09T00:33:06.791Z,89.04
2019-01-09T00:35:37.449Z,88.96
2019-01-09T00:38:05.399Z,89.07
2019-01-09T00:40:33.778Z,89.03
2019-01-09T00:43:02.156Z,89.19
2019-01-09T00:45:30.505Z,88.53
2019-01-09T00:47:58.811Z,88.96
2019-01-09T00:50:27.164Z,89.23
2019-01-09T00:52:55.489Z,89.02
2019-01-09T00:55:23.845Z,89.19
2019-01-09T00:57:52.159Z,88.80
2019-01-09T01:00:22.074Z,88.88
2019-01-09T01:03:05.463Z,89.40
2019-01-09T01:06:02.532Z,89.79
2019-01-09T01:08:50.840Z,90.17
2019-01-09T01:11:31.387Z,90.16
2019-01-09T01:14:22.222Z,90.03
2019-01-09T01:17:27.018Z,89.25
2019-01-09T01:20:01.342Z,88.88
2019-01-09T01:22:50.890Z,88.48
2019-01-09T01:25:40.542Z,88.43
2019-01-09T01:28:34.616Z,88.46
2019-01-09T01:31:08.835Z,88.44
2019-01-09T01:33:52.589Z,88.72
2019-01-09T01:36:39.370Z,88.62
2019-01-09T01:39:13.659Z,88.35
2019-01-09T01:42:09.082Z,88.46
2019-01-09T01:44:52.594Z,88.29
2019-01-09T01:47:54.160Z,87.68
2019-01-09T01:50:42.120Z,86.35
2019-01-09T01:53:13.709Z,86.27
2019-01-09T01:55:45.373Z,86.60
2019-01-09T01:58:40.959Z,86.94
2019-01-09T02:01:34.779Z,87.22
2019-01-09T02:04:18.103Z,87.23
2019-01-09T02:07:15.004Z,87.19
2019-01-09T02:10:18.195Z,87.33
2019-01-09T02:13:18.332Z,87.61
2019-01-09T02:16:06.388Z,88.05
2019-01-09T02:18:38.004Z,88.28
2019-01-09T02:21:12.304Z,88.62
2019-01-09T02:23:58.763Z,88.91
2019-01-09T02:26:45.237Z,89.21
2019-01-09T02:29:19.682Z,89.25
2019-01-09T02:32:05.876Z,89.20
2019-01-09T02:34:34.265Z,89.39
2019-01-09T02:37:02.606Z,89.29
2019-01-09T02:39:30.987Z,89.24
2019-01-09T02:41:59.258Z,89.15
2019-01-09T02:44:32.477Z,88.65
2019-01-09T02:46:57.644Z,88.22
2019-01-09T02:49:25.952Z,88.40
2019-01-09T02:51:54.348Z,88.63
2019-01-09T02:54:22.623Z,88.17
2019-01-09T02:56:51.123Z,87.81
2019-01-09T02:59:19.494Z,87.91
2019-01-09T03:01:47.802Z,88.04
2019-01-09T03:04:16.141Z,88.37
2019-01-09T03:06:44.470Z,88.66
2019-01-09T03:09:12.765Z,88.60
2019-01-09T03:11:41.262Z,88.81
2019-01-09T03:14:09.527Z,88.74
2019-01-09T03:16:37.800Z,88.71
2019-01-09T03:19:06.246Z,88.86
2019-01-09T03:21:34.555Z,89.02
2019-01-09T03:24:02.809Z,88.93
2019-01-09T03:26:31.099Z,89.22
2019-01-09T03:28:59.665Z,89.65
2019-01-09T03:31:28.008Z,89.51
2019-01-09T03:33:56.429Z,89.53
2019-01-09T03:36:32.552Z,89.44
2019-01-09T03:38:56.998Z,89.47
2019-01-09T03:41:25.341Z,89.66
2019-01-09T03:43:54.153Z,89.77
2019-01-09T03:46:22.417Z,89.98
2019-01-09T03:48:50.683Z,90.15
2019-01-09T03:51:19.182Z,90.16
2019-01-09T03:53:47.589Z,89.92
2019-01-09T03:56:16.005Z,89.49
2019-01-09T03:58:44.397Z,89.27
2019-01-09T04:01:12.681Z,89.16
2019-01-09T04:03:41.012Z,88.98
2019-01-09T04:06:09.333Z,88.88
2019-01-09T04:08:37.768Z,88.95
2019-01-09T04:11:06.139Z,88.98
2019-01-09T04:13:34.457Z,89.02
2019-01-09T04:16:02.854Z,88.77
2019-01-09T04:18:31.208Z,88.70
2019-01-09T04:20:59.515Z,88.74
2019-01-09T04:23:27.877Z,88.60
2019-01-09T04:25:56.166Z,88.64
2019-01-09T04:28:24.611Z,88.60
2019-01-09T04:30:52.879Z,88.68
2019-01-09T04:33:21.162Z,88.64
2019-01-09T04:35:49.444Z,88.50
2019-01-09T04:38:17.828Z,88.63
2019-01-09T04:40:47.687Z,88.25
2019-01-09T04:43:16.306Z,88.31
2019-01-09T04:45:44.653Z,88.23
2019-01-09T04:48:12.996Z,88.21
2019-01-09T04:50:41.461Z,88.04
2019-01-09T04:53:09.737Z,87.84
2019-01-09T04:55:38.044Z,87.29
2019-01-09T04:58:06.319Z,86.18
2019-01-09T05:00:34.740Z,86.15
2019-01-09T05:03:03.006Z,84.38
2019-01-09T05:05:31.334Z,84.39
2019-01-09T05:07:59.786Z,84.71
2019-01-09T05:10:28.059Z,85.04
2019-01-09T05:12:56.479Z,85.25
2019-01-09T05:15:24.859Z,85.41
2019-01-09T05:17:53.172Z,85.72
2019-01-09T05:20:21.529Z,85.85
2019-01-09T05:22:49.793Z,86.23
2019-01-09T05:25:18.171Z,86.27
2019-01-09T05:27:46.552Z,86.29
2019-01-09T05:30:14.823Z,86.44
2019-01-09T05:32:43.211Z,86.38
2019-01-09T05:35:11.967Z,86.31
2019-01-09T05:37:40.298Z,86.32
2019-01-09T05:40:09.151Z,86.36
2019-01-09T05:42:37.428Z,86.54
2019-01-09T05:45:05.914Z,86.42
2019-01-09T05:47:34.180Z,86.50
2019-01-09T05:50:02.558Z,86.70
2019-01-09T05:52:30.965Z,86.74
2019-01-09T05:54:59.238Z,86.96
2019-01-09T05:57:27.602Z,87.18
2019-01-09T05:59:55.969Z,87.14
2019-01-09T06:02:24.356Z,87.26
2019-01-09T06:04:53.976Z,87.47
2019-01-09T06:07:22.678Z,87.46
2019-01-09T06:09:52.990Z,87.57
2019-01-09T06:12:23.273Z,87.62
2019-01-09T06:14:51.662Z,87.83
2019-01-09T06:17:19.974Z,87.77
2019-01-09T06:19:48.370Z,87.98
2019-01-09T06:22:16.716Z,87.97
2019-01-09T06:24:45.062Z,87.70
2019-01-09T06:27:13.468Z,87.71
2019-01-09T06:29:41.724Z,88.10
2019-01-09T06:32:09.991Z,88.16
2019-01-09T06:34:38.410Z,88.18
2019-01-09T06:37:06.796Z,88.35
2019-01-09T06:39:35.067Z,88.38
2019-01-09T06:42:03.706Z,87.99
2019-01-09T06:44:31.984Z,87.68
2019-01-09T06:47:00.299Z,87.42
2019-01-09T06:49:28.663Z,87.12
2019-01-09T06:51:57.113Z,87.08
2019-01-09T06:54:25.664Z,87.22
2019-01-09T06:56:53.899Z,87.49
2019-01-09T06:59:22.389Z,87.69
2019-01-09T07:01:50.663Z,88.02
2019-01-09T07:04:18.983Z,88.12
2019-01-09T07:06:47.334Z,88.20
2019-01-09T07:09:15.737Z,88.15
2019-01-09T07:11:44.134Z,88.00
2019-01-09T07:14:12.508Z,87.82
2019-01-09T07:16:40.785Z,87.63
2019-01-09T07:19:09.078Z,87.42
2019-01-09T07:21:45.205Z,87.10
2019-01-09T07:24:07.714Z,86.85
2019-01-09T07:26:35.979Z,86.75
2019-01-09T07:29:04.413Z,86.18
2019-01-09T07:31:32.710Z,85.71
2019-01-09T07:34:00.981Z,85.15
2019-01-09T07:36:29.379Z,84.42
2019-01-09T07:38:58.370Z,83.97
2019-01-09T07:41:26.719Z,83.48
2019-01-09T07:43:55.093Z,82.82
2019-01-09T07:46:23.592Z,82.73
2019-01-09T07:48:51.971Z,82.20
2019-01-09T07:51:20.241Z,81.77
2019-01-09T07:53:48.647Z,81.95
2019-01-09T07:56:17.016Z,82.02
2019-01-09T07:58:45.320Z,82.14
2019-01-09T08:01:13.781Z,82.27
2019-01-09T08:03:42.103Z,82.76
2019-01-09T08:06:10.364Z,83.19
2019-01-09T08:08:38.691Z,83.44
2019-01-09T08:11:06.987Z,83.39
2019-01-09T08:13:35.291Z,83.37
2019-01-09T08:16:03.639Z,83.37
2019-01-09T08:18:31.907Z,83.06
2019-01-09T08:21:05.213Z,83.00
2019-01-09T08:23:30.512Z,82.91
2019-01-09T08:25:59.820Z,82.88
2019-01-09T08:28:28.362Z,83.23
2019-01-09T08:30:56.696Z,83.58
2019-01-09T08:33:25.075Z,83.63
2019-01-09T08:35:53.472Z,83.85
2019-01-09T08:38:21.806Z,83.80
2019-01-09T08:40:50.275Z,83.81
2019-01-09T08:43:18.670Z,84.16
2019-01-09T08:45:46.930Z,83.93
2019-01-09T08:48:15.313Z,83.28
2019-01-09T08:50:49.762Z,81.50
2019-01-09T08:53:18.027Z,80.52
2019-01-09T08:55:46.378Z,78.69
2019-01-09T08:58:14.773Z,77.63
2019-01-09T09:00:43.128Z,76.70
2019-01-09T09:03:11.394Z,75.93
2019-01-09T09:05:39.958Z,74.69
2019-01-09T09:08:12.250Z,73.80
2019-01-09T09:10:38.407Z,72.88
2019-01-09T09:13:06.788Z,71.97
2019-01-09T09:15:35.157Z,71.98
2019-01-09T09:18:03.519Z,70.16
2019-01-09T09:20:31.876Z,70.39
2019-01-09T09:23:00.227Z,69.24
2019-01-09T09:25:28.629Z,70.03
2019-01-09T09:27:56.944Z,69.92
2019-01-09T09:30:25.303Z,69.79
2019-01-09T09:32:53.682Z,69.17
2019-01-09T09:35:22.030Z,69.15
2019-01-09T09:37:50.375Z,71.05
2019-01-09T09:40:20.228Z,70.91
2019-01-09T09:42:48.571Z,70.22
2019-01-09T09:45:16.963Z,69.51
2019-01-09T09:47:45.444Z,68.99
2019-01-09T09:50:18.118Z,69.12
2019-01-09T09:52:46.412Z,68.71
2019-01-09T09:55:14.778Z,69.31
2019-01-09T09:57:43.170Z,69.00
2019-01-09T10:00:14.804Z,68.37
2019-01-09T10:02:43.157Z,68.34
2019-01-09T10:05:11.611Z,68.04
2019-01-09T10:07:39.882Z,67.35
2019-01-09T10:10:11.533Z,67.54
2019-01-09T10:12:39.833Z,67.40
2019-01-09T10:15:11.526Z,67.82
2019-01-09T10:17:39.829Z,67.38
2019-01-09T10:20:11.615Z,67.87
2019-01-09T10:22:40.907Z,68.22
2019-01-09T10:25:09.326Z,67.57
2019-01-09T10:27:37.650Z,68.65
2019-01-09T10:30:15.185Z,68.33
2019-01-09T10:32:43.577Z,68.34
2019-01-09T10:35:11.906Z,69.61
2019-01-09T10:37:40.306Z,70.66
2019-01-09T10:40:14.778Z,69.25
2019-01-09T10:42:43.098Z,69.13
2019-01-09T10:45:14.983Z,69.94
2019-01-09T10:47:43.245Z,71.38
2019-01-09T10:50:13.889Z,69.49
2019-01-09T10:52:42.240Z,68.88
2019-01-09T10:55:14.015Z,68.58
2019-01-09T10:57:42.371Z,70.20
2019-01-09T11:00:22.164Z,68.59
2019-01-09T11:02:50.579Z,68.75
2019-01-09T11:05:18.917Z,69.86
2019-01-09T11:07:47.280Z,69.75
2019-01-09T11:10:19.122Z,69.51
2019-01-09T11:12:47.422Z,70.24
2019-01-09T11:15:15.735Z,70.35
2019-01-09T11:17:44.108Z,69.88
2019-01-09T11:20:15.767Z,70.59
2019-01-09T11:22:44.127Z,69.41
2019-01-09T11:25:15.765Z,67.92
2019-01-09T11:27:44.123Z,69.32
2019-01-09T11:30:15.120Z,68.47
2019-01-09T11:32:43.536Z,68.17
2019-01-09T11:35:14.271Z,69.92
2019-01-09T11:37:42.738Z,67.91
2019-01-09T11:40:17.253Z,67.47
2019-01-09T11:42:45.599Z,66.85
2019-01-09T11:45:17.348Z,66.72
2019-01-09T11:47:45.601Z,66.33
2019-01-09T11:50:15.452Z,66.69
2019-01-09T11:52:43.845Z,65.77
2019-01-09T11:55:14.453Z,65.35
2019-01-09T11:57:42.821Z,66.11
2019-01-09T12:00:22.478Z,65.95
2019-01-09T12:02:50.750Z,66.27
2019-01-09T12:05:19.072Z,66.09
2019-01-09T12:07:47.437Z,65.85
2019-01-09T12:10:18.506Z,65.08
2019-01-09T12:12:46.820Z,66.18
2019-01-09T12:15:16.489Z,65.35
2019-01-09T12:17:44.760Z,64.66
2019-01-09T12:20:18.640Z,62.80
2019-01-09T12:22:47.132Z,63.15
2019-01-09T12:25:15.405Z,64.59
2019-01-09T12:27:43.809Z,64.33
2019-01-09T12:30:21.608Z,65.00
2019-01-09T12:32:49.976Z,64.88
2019-01-09T12:35:18.312Z,65.07
2019-01-09T12:37:46.671Z,65.39
2019-01-09T12:40:15.038Z,65.28
2019-01-09T12:42:43.521Z,64.91
2019-01-09T12:45:14.592Z,63.78
2019-01-09T12:47:42.989Z,63.72
2019-01-09T12:50:14.637Z,65.00
2019-01-09T12:52:42.979Z,65.46
2019-01-09T12:55:11.416Z,66.33
2019-01-09T12:57:39.860Z,65.95
2019-01-09T13:00:15.385Z,64.54
2019-01-09T13:02:43.719Z,65.05
2019-01-09T13:05:12.095Z,65.56
2019-01-09T13:07:40.433Z,65.59
2019-01-09T13:10:10.404Z,66.25
2019-01-09T13:12:38.713Z,66.69
2019-01-09T13:15:09.637Z,67.59
2019-01-09T13:17:37.971Z,66.97
2019-01-09T13:20:12.580Z,67.64
2019-01-09T13:22:41.146Z,66.66
2019-01-09T13:25:11.752Z,65.04
2019-01-09T13:27:40.207Z,65.51
2019-01-09T13:30:13.255Z,66.34
2019-01-09T13:32:41.676Z,67.34
2019-01-09T13:35:10.056Z,66.29
2019-01-09T13:37:43.386Z,66.72
2019-01-09T13:40:18.479Z,65.89
2019-01-09T13:42:47.026Z,66.83
2019-01-09T13:45:18.064Z,64.46
2019-01-09T13:47:47.781Z,64.99
2019-01-09T13:50:19.161Z,64.61
2019-01-09T13:52:47.475Z,64.62
2019-01-09T13:55:17.226Z,64.92
2019-01-09T13:57:45.502Z,65.60
2019-01-09T14:00:22.260Z,65.69
2019-01-09T14:02:50.601Z,66.33
2019-01-09T14:05:18.997Z,65.66
2019-01-09T14:07:47.310Z,66.00
2019-01-09T14:10:20.245Z,66.50
2019-01-09T14:12:49.067Z,67.03
2019-01-09T14:15:20.418Z,67.98
2019-01-09T14:17:52.505Z,67.30
2019-01-09T14:20:21.210Z,67.62
2019-01-09T14:22:49.884Z,66.79
2019-01-09T14:25:18.544Z,67.08
2019-01-09T14:27:47.013Z,65.84
2019-01-09T14:30:18.458Z,66.15
2019-01-09T14:32:46.790Z,65.62
2019-01-09T14:35:15.106Z,66.18
2019-01-09T14:37:43.935Z,66.97
2019-01-09T14:40:15.747Z,67.16
2019-01-09T14:42:44.160Z,66.67
2019-01-09T14:45:15.586Z,67.97
2019-01-09T14:47:44.691Z,68.20
2019-01-09T14:50:16.517Z,68.35
2019-01-09T14:52:45.889Z,69.38
2019-01-09T14:55:14.540Z,69.17
2019-01-09T14:57:43.588Z,69.66
2019-01-09T15:00:23.958Z,69.39
2019-01-09T15:02:52.546Z,70.34
2019-01-09T15:05:20.982Z,70.39
2019-01-09T15:07:51.791Z,70.23
2019-01-09T15:10:31.472Z,70.77
2019-01-09T15:13:00.176Z,71.64
2019-01-09T15:15:29.438Z,71.94
2019-01-09T15:17:58.486Z,72.52
2019-01-09T15:20:27.345Z,72.39
2019-01-09T15:22:56.763Z,72.23
2019-01-09T15:25:25.012Z,72.38
2019-01-09T15:27:54.681Z,72.99
2019-01-09T15:30:26.109Z,72.83
2019-01-09T15:32:54.375Z,73.27
2019-01-09T15:35:23.171Z,72.84
2019-01-09T15:37:52.482Z,73.49
2019-01-09T15:40:29.353Z,73.40
2019-01-09T15:42:58.275Z,73.49
2019-01-09T15:45:27.397Z,73.84
2019-01-09T15:47:55.834Z,73.82
2019-01-09T15:50:27.183Z,73.55
2019-01-09T15:52:55.709Z,74.08
2019-01-09T15:55:24.320Z,74.25
2019-01-09T15:57:54.394Z,75.32
2019-01-09T16:00:28.904Z,74.77
2019-01-09T16:02:57.445Z,74.82
2019-01-09T16:05:25.711Z,74.79
2019-01-09T16:07:54.123Z,74.71
2019-01-09T16:10:24.123Z,74.86
2019-01-09T16:12:53.598Z,75.05
2019-01-09T16:15:22.206Z,75.10
2019-01-09T16:17:51.313Z,75.12
2019-01-09T16:20:22.427Z,75.84
2019-01-09T16:22:50.722Z,76.15
2019-01-09T16:25:19.954Z,76.21
2019-01-09T16:27:52.107Z,76.16
2019-01-09T16:30:38.954Z,76.37
2019-01-09T16:33:07.453Z,76.50
2019-01-09T16:35:50.631Z,76.54
2019-01-09T16:38:34.097Z,76.82
2019-01-09T16:41:16.685Z,76.70
2019-01-09T16:43:46.158Z,77.11
2019-01-09T16:46:14.595Z,77.27
2019-01-09T16:48:42.860Z,77.46
2019-01-09T16:51:11.136Z,77.75
2019-01-09T16:53:39.571Z,77.85
2019-01-09T16:56:08.501Z,77.96
2019-01-09T16:58:37.885Z,78.09
2019-01-09T17:01:07.392Z,77.98
2019-01-09T17:03:35.700Z,78.45
2019-01-09T17:06:04.048Z,78.71
2019-01-09T17:08:32.521Z,78.89
2019-01-09T17:11:00.862Z,78.92
2019-01-09T17:13:29.572Z,78.87
2019-01-09T17:15:57.924Z,78.91
2019-01-09T17:18:26.344Z,79.12
2019-01-09T17:20:54.639Z,79.28
2019-01-09T17:23:23.039Z,79.38
2019-01-09T17:25:51.445Z,79.44
2019-01-09T17:28:19.804Z,79.45
2019-01-09T17:30:48.136Z,79.49
2019-01-09T17:33:16.537Z,79.64
2019-01-09T17:35:44.802Z,79.99
2019-01-09T17:38:13.262Z,80.12
2019-01-09T17:40:41.591Z,80.50
2019-01-09T17:43:10.041Z,80.41
2019-01-09T17:45:38.401Z,80.58
2019-01-09T17:48:06.964Z,80.62
2019-01-09T17:50:38.066Z,80.79
2019-01-09T17:53:06.415Z,80.89
2019-01-09T17:55:50.262Z,81.29
2019-01-09T17:58:18.899Z,81.46
2019-01-09T18:00:47.831Z,81.68
2019-01-09T18:03:17.014Z,81.60
2019-01-09T18:05:45.475Z,81.49
2019-01-09T18:08:13.956Z,81.38
2019-01-09T18:10:50.063Z,81.10
2019-01-09T18:13:12.801Z,81.44
2019-01-09T18:15:41.605Z,81.37
2019-01-09T18:18:09.867Z,81.59
2019-01-09T18:20:38.480Z,81.04
2019-01-09T18:23:07.258Z,81.04
2019-01-09T18:25:36.208Z,81.03
2019-01-09T18:28:05.270Z,81.38
2019-01-09T18:30:42.711Z,81.22
2019-01-09T18:33:20.285Z,81.05
2019-01-09T18:35:55.914Z,80.77
2019-01-09T18:38:46.890Z,81.24
2019-01-09T18:41:33.559Z,80.98
2019-01-09T18:44:11.536Z,81.01
2019-01-09T18:46:51.652Z,81.06
2019-01-09T18:49:27.339Z,81.26
2019-01-09T18:52:11.497Z,81.45
2019-01-09T18:54:40.166Z,81.65
2019-01-09T18:57:08.704Z,81.66
2019-01-09T18:59:38.393Z,81.77
2019-01-09T19:02:06.907Z,81.79
2019-01-09T19:04:35.253Z,81.90
2019-01-09T19:07:07.691Z,82.10
2019-01-09T19:09:36.242Z,82.23
2019-01-09T19:12:04.691Z,82.66
2019-01-09T19:14:33.418Z,82.60
2019-01-09T19:17:01.967Z,82.58
2019-01-09T19:19:30.545Z,82.65
2019-01-09T19:21:58.884Z,82.94
2019-01-09T19:24:27.835Z,83.13
2019-01-09T19:26:58.843Z,82.80
2019-01-09T19:29:29.734Z,83.10
2019-01-09T19:32:05.739Z,83.33
2019-01-09T19:34:35.338Z,83.44
2019-01-09T19:37:06.783Z,83.57
2019-01-09T19:39:36.116Z,83.52
2019-01-09T19:42:04.537Z,83.89
2019-01-09T19:44:32.917Z,83.78
2019-01-09T19:47:01.208Z,83.77
2019-01-09T19:49:38.260Z,84.35
2019-01-09T19:52:06.674Z,83.93
2019-01-09T19:54:35.028Z,84.50
2019-01-09T19:57:03.413Z,84.36
2019-01-09T19:59:31.680Z,84.54
2019-01-09T20:02:00.045Z,84.53
2019-01-09T20:04:28.534Z,84.77
2019-01-09T20:06:56.868Z,84.87
2019-01-09T20:09:25.201Z,85.14
2019-01-09T20:11:53.671Z,85.50
2019-01-09T20:14:22.068Z,85.42
2019-01-09T20:16:50.455Z,85.18
2019-01-09T20:19:18.746Z,85.35
2019-01-09T20:21:47.173Z,85.37
2019-01-09T20:24:17.197Z,85.69
2019-01-09T20:26:45.507Z,85.73
2019-01-09T20:29:13.757Z,85.72
2019-01-09T20:31:42.158Z,86.05
2019-01-09T20:34:10.980Z,85.86
2019-01-09T20:36:39.542Z,86.07
2019-01-09T20:39:20.147Z,85.76
2019-01-09T20:41:48.983Z,85.93
2019-01-09T20:44:17.344Z,86.01
2019-01-09T20:46:46.220Z,85.92
2019-01-09T20:49:14.920Z,85.94
2019-01-09T20:51:43.583Z,85.87
2019-01-09T20:54:12.069Z,86.28
2019-01-09T20:56:40.399Z,86.27
2019-01-09T20:59:09.883Z,86.14
2019-01-09T21:01:38.779Z,86.33
2019-01-09T21:04:07.164Z,86.56
2019-01-09T21:06:35.921Z,86.39
2019-01-09T21:09:05.219Z,86.21
2019-01-09T21:11:43.948Z,86.27
2019-01-09T21:14:04.355Z,86.21
2019-01-09T21:16:32.702Z,86.20
2019-01-09T21:19:07.771Z,85.90
2019-01-09T21:21:37.132Z,86.19
2019-01-09T21:24:07.590Z,85.92
2019-01-09T21:26:36.069Z,86.06
2019-01-09T21:29:10.155Z,86.11
2019-01-09T21:31:38.729Z,86.10
2019-01-09T21:34:08.914Z,86.42
2019-01-09T21:36:37.353Z,86.20
2019-01-09T21:39:08.561Z,86.37
2019-01-09T21:41:36.880Z,86.49
2019-01-09T21:44:05.433Z,86.40
2019-01-09T21:46:33.716Z,86.38
2019-01-09T21:49:02.049Z,86.92
2019-01-09T21:51:31.801Z,86.83
2019-01-09T21:54:01.841Z,86.81
2019-01-09T21:56:30.257Z,86.92
2019-01-09T21:58:58.579Z,86.88
2019-01-09T22:01:30.738Z,86.96
2019-01-09T22:04:00.231Z,86.93
2019-01-09T22:06:28.642Z,87.01
2019-01-09T22:08:57.046Z,86.94
2019-01-09T22:11:25.497Z,86.97
2019-01-09T22:13:53.874Z,86.93
2019-01-09T22:16:22.284Z,86.63
2019-01-09T22:18:50.720Z,86.66
2019-01-09T22:21:19.893Z,86.87
2019-01-09T22:23:48.160Z,86.80
2019-01-09T22:26:17.938Z,86.47
2019-01-09T22:28:47.242Z,86.31
2019-01-09T22:31:16.502Z,86.53
2019-01-09T22:33:45.742Z,86.72
2019-01-09T22:36:14.171Z,86.55
2019-01-09T22:38:42.454Z,86.17
2019-01-09T22:41:10.781Z,86.58
2019-01-09T22:43:39.159Z,86.44
2019-01-09T22:46:07.575Z,86.00
2019-01-09T22:48:36.345Z,85.97
2019-01-09T22:51:05.521Z,86.02
2019-01-09T22:53:33.818Z,85.98
2019-01-09T22:56:02.320Z,86.04
2019-01-09T22:58:30.642Z,86.16
2019-01-09T23:01:00.162Z,86.08
2019-01-09T23:03:28.486Z,86.62
2019-01-09T23:05:56.846Z,86.68
2019-01-09T23:08:25.183Z,86.54
2019-01-09T23:10:55.042Z,86.52
2019-01-09T23:13:23.586Z,86.58
2019-01-09T23:15:51.930Z,86.34
2019-01-09T23:18:20.207Z,86.30
2019-01-09T23:20:48.582Z,85.89
2019-01-09T23:23:16.877Z,85.79
2019-01-09T23:25:45.337Z,85.61
2019-01-09T23:28:13.697Z,85.81
2019-01-09T23:30:42.790Z,85.75
2019-01-09T23:33:11.122Z,85.64
2019-01-09T23:35:39.405Z,85.70
2019-01-09T23:38:07.797Z,85.62
2019-01-09T23:40:36.177Z,85.44
2019-01-09T23:43:04.657Z,85.33
2019-01-09T23:45:33.008Z,84.97
2019-01-09T23:48:01.403Z,84.81
2019-01-09T23:50:29.723Z,84.74
2019-01-09T23:52:58.927Z,84.76
2019-01-09T23:55:28.373Z,85.24
2019-01-09T23:57:58.102Z,85.39
